Terminal Aerodrome Forecast
Issued by NWS Sioux Falls, SD

Home | Current Version | Previous Version | Graphics & Text | Print | Product List | Glossary On
Versions: 1 2 3 4 5 6 7 8 9 10 11 12 13 14 15
968
FTUS43 KFSD 260524
TAFHON
TAF
KHON 260524Z 2606/2706 34016G23KT P6SM SCT008 OVC012
     FM261300 33017G24KT P6SM OVC008
     FM261800 34017G24KT P6SM OVC020
     FM270100 35012KT P6SM BKN035
     FM270400 35008KT P6SM BKN060=

USA.gov is the U.S. government's official web portal to all federal, state and local government web resources and services.